Warning: Javascript must be enabled to use all the features on this page!


Page Loading - Please Wait...

Click to hideNews Bulletins

Peak Streamflow for Georgia

Click to hide state-specific text

Questions about data? Click here.


USGS 02336300 PEACHTREE CREEK AT ATLANTA, GA

Fulton County, Georgia
Hydrologic Unit Code 03130001
Latitude  33°49'13.1", Longitude  84°24'27.5" NAD83
Drainage area 86.8  square miles
Gage datum 764.13 feet above NAVD88
Output formats
Table
Graph
Tab-separated file
peakfq (watstore) format
Reselect output format
Water
Year
Date Gage
Height
(feet)
Stream-
flow
(cfs)
1912 1912-03-15   16,5002,7,C
1916 1915-12-29   13,5002,7,C
1920 1919-12-09   21,0002,7,9,C
1949 1948-11-28 18.70 6,8807,C
1956 1956-03-16 18.36 6,300C
1957 1957-04-05 16.76 5,670C
1958 1958-02-06 12.48 3,450C
1959 1959-05-30 14.20 4,300C
1960 1960-04-03 12.00 3,230C
1961 1961-02-25 17.10 5,860C
1962 1962-02-22 14.90 4,650C
1963 1963-04-30 18.70 6,880C
1964 1964-04-06 17.30 5,760C
1965 1965-01-23 13.40 3,800C
1966 1966-02-13 15.46 4,830C
1967 1967-07-29 16.48 5,340C
1968 1968-03-12 13.48 3,840C
1969 1969-04-18 17.91 6,840C
1970 1970-03-19 18.31 6,950C
1971 1971-07-30 16.24 5,500C
1972 1972-01-10 16.24 5,470C
1973 1973-02-01 16.90 5,930C
1974 1973-12-31 16.88 5,960C
1975 1975-03-13 19.41 8,350C
1976 1976-03-16 20.30 8,660C
1977 1977-03-21 13.89 4,030C
1978 1978-01-25 16.23 5,460C
1979 1979-04-13 19.08 8,070C
1980 1980-05-23 16.95 6,360C
1981 1981-02-11 13.88 4,300C
1982 1982-02-03 17.16 6,520C
1983 1983-04-08 17.97 7,120C
1984 1984-05-02 17.04 6,420C
1985 1985-08-17 16.20 5,810C
1986 1985-10-01 13.27 3,920C
1987 1987-01-18 19.22 8,110C
1988 1988-04-11 15.45 5,300C
1989 1989-09-30 19.47 8,310C
1990 1990-03-17 21.06 9,650C
1991 1991-05-19 18.48 7,520C
1992 1992-09-05 19.64 8,450C
1993 1992-11-25 18.31 7,380C
1994 1994-09-18 18.50 7,530C
1995 1995-03-08 14.13 4,440C
1996 1995-10-04 19.10 8,010C
1997 1997-07-23 17.62 6,860C
1998 1998-03-08 20.16 8,880C
1999 1999-07-06 16.00 5,670C
2000 2000-09-21 15.87 5,580C
2001 2001-03-15 15.61 5,410C
2002 2002-05-04 18.18 7,270C
2003 2003-05-16 18.07 7,190C
2004 2004-09-16 22.66 14,600C
2005 2005-07-11 19.56 8,370C
2006 2006-08-31 14.48 4,660C
2007 2006-11-15 14.33 4,570C
2008 2007-12-28 13.65 4,140C
2009 2009-09-21 23.701 9,050C
2010 2010-05-03 19.17 8,050C
2011 2010-11-30 14.54 4,700C
2012 2012-03-03 15.85 5,570C
2013 2013-05-05 16.23 5,830C
2014 2014-04-07 17.71 6,910C
2015 2015-01-04 12.92 3,710C
2016 2015-12-24 19.41 8,250C
2017 2017-06-20 18.85 7,800C
2018 2018-08-01 12.74 3,610C
2019 2018-12-28 19.21 8,090C
2020 2020-09-17 19.06 7,970C
?
  Peak Gage-Height Qualification Codes.
?
  Peak Streamflow Qualification Codes.